sensor_id;sensor_type;location;lat;lon;timestamp;P1;durP1;ratioP1;P2;durP2;ratioP2
21806;SDS011;11065;50.786;7.840;2022-07-29T00:02:25;3.33;;;1.20;;
21806;SDS011;11065;50.786;7.840;2022-07-29T00:04:52;2.53;;;1.23;;
21806;SDS011;11065;50.786;7.840;2022-07-29T00:07:19;2.50;;;1.00;;
21806;SDS011;11065;50.786;7.840;2022-07-29T00:09:46;4.30;;;1.00;;
21806;SDS011;11065;50.786;7.840;2022-07-29T00:12:18;2.03;;;1.10;;
21806;SDS011;11065;50.786;7.840;2022-07-29T00:14:52;4.03;;;1.27;;
21806;SDS011;11065;50.786;7.840;2022-07-29T00:17:21;3.70;;;1.00;;
21806;SDS011;11065;50.786;7.840;2022-07-29T00:19:49;2.03;;;1.23;;
21806;SDS011;11065;50.786;7.840;2022-07-29T00:22:16;2.40;;;1.20;;
21806;SDS011;11065;50.786;7.840;2022-07-29T00:24:43;3.07;;;1.20;;
21806;SDS011;11065;50.786;7.840;2022-07-29T00:27:10;2.27;;;1.10;;
21806;SDS011;11065;50.786;7.840;2022-07-29T00:29:36;2.23;;;1.00;;
21806;SDS011;11065;50.786;7.840;2022-07-29T00:32:03;1.87;;;1.03;;
21806;SDS011;11065;50.786;7.840;2022-07-29T00:34:30;1.73;;;0.93;;
21806;SDS011;11065;50.786;7.840;2022-07-29T00:37:16;1.93;;;1.10;;
21806;SDS011;11065;50.786;7.840;2022-07-29T00:39:43;3.13;;;1.10;;
21806;SDS011;11065;50.786;7.840;2022-07-29T00:42:10;2.53;;;0.93;;
21806;SDS011;11065;50.786;7.840;2022-07-29T00:44:37;2.10;;;1.17;;
21806;SDS011;11065;50.786;7.840;2022-07-29T00:47:05;1.70;;;1.20;;
21806;SDS011;11065;50.786;7.840;2022-07-29T00:49:33;4.27;;;1.10;;
21806;SDS011;11065;50.786;7.840;2022-07-29T00:52:01;2.20;;;1.00;;
21806;SDS011;11065;50.786;7.840;2022-07-29T00:54:29;1.87;;;1.10;;
21806;SDS011;11065;50.786;7.840;2022-07-29T00:56:59;3.20;;;1.20;;
21806;SDS011;11065;50.786;7.840;2022-07-29T00:59:27;2.80;;;1.00;;
21806;SDS011;11065;50.786;7.840;2022-07-29T01:02:01;3.80;;;1.37;;
21806;SDS011;11065;50.786;7.840;2022-07-29T01:04:29;3.07;;;1.50;;
21806;SDS011;11065;50.786;7.840;2022-07-29T01:06:57;3.83;;;1.10;;
21806;SDS011;11065;50.786;7.840;2022-07-29T01:09:24;3.67;;;1.20;;
21806;SDS011;11065;50.786;7.840;2022-07-29T01:12:11;3.53;;;1.20;;
21806;SDS011;11065;50.786;7.840;2022-07-29T01:14:41;2.50;;;1.03;;
21806;SDS011;11065;50.786;7.840;2022-07-29T01:17:10;8.23;;;1.30;;
21806;SDS011;11065;50.786;7.840;2022-07-29T01:19:50;4.27;;;1.47;;
21806;SDS011;11065;50.786;7.840;2022-07-29T01:22:23;2.80;;;1.20;;
21806;SDS011;11065;50.786;7.840;2022-07-29T01:24:59;3.23;;;1.20;;
21806;SDS011;11065;50.786;7.840;2022-07-29T01:27:38;3.13;;;0.80;;
21806;SDS011;11065;50.786;7.840;2022-07-29T01:30:17;4.23;;;1.07;;
21806;SDS011;11065;50.786;7.840;2022-07-29T01:32:48;2.87;;;1.20;;
21806;SDS011;11065;50.786;7.840;2022-07-29T01:35:19;2.80;;;1.10;;
21806;SDS011;11065;50.786;7.840;2022-07-29T01:38:26;2.03;;;1.03;;
21806;SDS011;11065;50.786;7.840;2022-07-29T01:40:58;4.20;;;1.10;;
21806;SDS011;11065;50.786;7.840;2022-07-29T01:43:34;2.37;;;1.10;;
21806;SDS011;11065;50.786;7.840;2022-07-29T01:46:08;2.40;;;0.90;;
21806;SDS011;11065;50.786;7.840;2022-07-29T01:53:50;1.50;;;1.00;;
21806;SDS011;11065;50.786;7.840;2022-07-29T01:56:25;4.50;;;1.23;;
21806;SDS011;11065;50.786;7.840;2022-07-29T01:58:56;2.77;;;1.00;;
21806;SDS011;11065;50.786;7.840;2022-07-29T02:01:24;4.40;;;1.40;;
21806;SDS011;11065;50.786;7.840;2022-07-29T02:03:53;2.57;;;1.17;;
21806;SDS011;11065;50.786;7.840;2022-07-29T02:06:21;1.33;;;0.90;;
21806;SDS011;11065;50.786;7.840;2022-07-29T02:08:49;4.50;;;1.10;;
21806;SDS011;11065;50.786;7.840;2022-07-29T02:11:18;3.50;;;1.40;;
21806;SDS011;11065;50.786;7.840;2022-07-29T02:13:45;4.10;;;1.10;;
21806;SDS011;11065;50.786;7.840;2022-07-29T02:16:13;3.13;;;1.10;;
21806;SDS011;11065;50.786;7.840;2022-07-29T02:18:42;2.33;;;0.90;;
21806;SDS011;11065;50.786;7.840;2022-07-29T02:21:11;2.40;;;1.00;;
21806;SDS011;11065;50.786;7.840;2022-07-29T02:23:42;3.40;;;1.33;;
21806;SDS011;11065;50.786;7.840;2022-07-29T02:26:17;3.17;;;1.20;;
21806;SDS011;11065;50.786;7.840;2022-07-29T02:28:45;2.10;;;1.03;;
21806;SDS011;11065;50.786;7.840;2022-07-29T02:31:14;2.80;;;1.20;;
21806;SDS011;11065;50.786;7.840;2022-07-29T02:33:45;6.50;;;1.50;;
21806;SDS011;11065;50.786;7.840;2022-07-29T02:36:14;2.97;;;1.03;;
21806;SDS011;11065;50.786;7.840;2022-07-29T02:38:42;2.30;;;1.20;;
21806;SDS011;11065;50.786;7.840;2022-07-29T02:41:20;3.70;;;1.20;;
21806;SDS011;11065;50.786;7.840;2022-07-29T02:43:55;5.30;;;1.43;;
21806;SDS011;11065;50.786;7.840;2022-07-29T02:46:34;3.47;;;1.00;;
21806;SDS011;11065;50.786;7.840;2022-07-29T02:52:17;2.70;;;1.20;;
21806;SDS011;11065;50.786;7.840;2022-07-29T02:54:58;5.60;;;1.20;;
21806;SDS011;11065;50.786;7.840;2022-07-29T02:58:03;4.47;;;1.13;;
21806;SDS011;11065;50.786;7.840;2022-07-29T03:00:41;3.30;;;1.20;;
21806;SDS011;11065;50.786;7.840;2022-07-29T03:03:11;4.77;;;1.10;;
21806;SDS011;11065;50.786;7.840;2022-07-29T03:05:39;1.90;;;1.00;;
21806;SDS011;11065;50.786;7.840;2022-07-29T03:08:06;4.83;;;1.30;;
21806;SDS011;11065;50.786;7.840;2022-07-29T03:10:37;3.20;;;1.07;;
21806;SDS011;11065;50.786;7.840;2022-07-29T03:13:09;3.30;;;1.30;;
21806;SDS011;11065;50.786;7.840;2022-07-29T03:15:38;4.40;;;1.50;;
21806;SDS011;11065;50.786;7.840;2022-07-29T03:18:05;5.97;;;1.57;;
21806;SDS011;11065;50.786;7.840;2022-07-29T03:20:33;5.60;;;1.70;;
21806;SDS011;11065;50.786;7.840;2022-07-29T03:23:00;5.23;;;1.20;;
21806;SDS011;11065;50.786;7.840;2022-07-29T03:25:27;3.40;;;1.50;;
21806;SDS011;11065;50.786;7.840;2022-07-29T03:27:54;3.67;;;1.53;;
21806;SDS011;11065;50.786;7.840;2022-07-29T03:30:21;1.53;;;1.00;;
21806;SDS011;11065;50.786;7.840;2022-07-29T03:32:49;2.47;;;1.27;;
21806;SDS011;11065;50.786;7.840;2022-07-29T03:35:18;3.13;;;1.47;;
21806;SDS011;11065;50.786;7.840;2022-07-29T03:37:45;2.23;;;1.10;;
21806;SDS011;11065;50.786;7.840;2022-07-29T03:40:14;3.23;;;1.30;;
21806;SDS011;11065;50.786;7.840;2022-07-29T03:42:48;2.93;;;1.27;;
21806;SDS011;11065;50.786;7.840;2022-07-29T03:45:17;4.90;;;1.20;;
21806;SDS011;11065;50.786;7.840;2022-07-29T03:47:47;2.63;;;1.13;;
21806;SDS011;11065;50.786;7.840;2022-07-29T03:50:25;5.37;;;1.50;;
21806;SDS011;11065;50.786;7.840;2022-07-29T03:52:52;4.43;;;1.30;;
21806;SDS011;11065;50.786;7.840;2022-07-29T03:55:19;2.03;;;1.10;;
21806;SDS011;11065;50.786;7.840;2022-07-29T03:57:46;3.37;;;1.30;;
21806;SDS011;11065;50.786;7.840;2022-07-29T04:00:14;1.83;;;1.10;;
21806;SDS011;11065;50.786;7.840;2022-07-29T04:02:43;2.53;;;1.07;;
21806;SDS011;11065;50.786;7.840;2022-07-29T04:05:14;2.10;;;1.10;;
21806;SDS011;11065;50.786;7.840;2022-07-29T04:07:45;3.83;;;1.50;;
21806;SDS011;11065;50.786;7.840;2022-07-29T04:10:13;2.53;;;1.20;;
21806;SDS011;11065;50.786;7.840;2022-07-29T04:12:42;2.97;;;1.23;;
21806;SDS011;11065;50.786;7.840;2022-07-29T04:15:09;2.77;;;1.27;;
21806;SDS011;11065;50.786;7.840;2022-07-29T04:17:36;3.90;;;1.17;;
21806;SDS011;11065;50.786;7.840;2022-07-29T04:20:04;4.40;;;1.30;;
21806;SDS011;11065;50.786;7.840;2022-07-29T04:22:31;4.33;;;1.17;;
21806;SDS011;11065;50.786;7.840;2022-07-29T04:24:58;2.60;;;1.10;;
21806;SDS011;11065;50.786;7.840;2022-07-29T04:27:29;5.33;;;1.23;;
21806;SDS011;11065;50.786;7.840;2022-07-29T04:29:56;3.27;;;1.10;;
21806;SDS011;11065;50.786;7.840;2022-07-29T04:32:24;2.60;;;1.20;;
21806;SDS011;11065;50.786;7.840;2022-07-29T04:34:50;4.13;;;1.30;;
21806;SDS011;11065;50.786;7.840;2022-07-29T04:37:17;2.43;;;1.20;;
21806;SDS011;11065;50.786;7.840;2022-07-29T04:39:44;2.93;;;1.10;;
21806;SDS011;11065;50.786;7.840;2022-07-29T04:42:11;4.43;;;1.30;;
21806;SDS011;11065;50.786;7.840;2022-07-29T04:44:38;1.73;;;1.00;;
21806;SDS011;11065;50.786;7.840;2022-07-29T04:47:08;3.77;;;1.00;;
21806;SDS011;11065;50.786;7.840;2022-07-29T04:49:38;3.77;;;1.40;;
21806;SDS011;11065;50.786;7.840;2022-07-29T04:52:05;3.07;;;1.20;;
21806;SDS011;11065;50.786;7.840;2022-07-29T04:54:32;3.57;;;1.23;;
21806;SDS011;11065;50.786;7.840;2022-07-29T04:56:59;3.80;;;1.40;;
21806;SDS011;11065;50.786;7.840;2022-07-29T04:59:26;2.37;;;1.20;;
21806;SDS011;11065;50.786;7.840;2022-07-29T05:01:53;3.63;;;1.20;;
21806;SDS011;11065;50.786;7.840;2022-07-29T05:04:20;2.53;;;1.40;;
21806;SDS011;11065;50.786;7.840;2022-07-29T05:06:47;3.97;;;1.20;;
21806;SDS011;11065;50.786;7.840;2022-07-29T05:09:14;5.63;;;1.40;;
21806;SDS011;11065;50.786;7.840;2022-07-29T05:11:41;6.03;;;1.90;;
21806;SDS011;11065;50.786;7.840;2022-07-29T05:14:08;3.23;;;1.30;;
21806;SDS011;11065;50.786;7.840;2022-07-29T05:16:35;5.57;;;1.50;;
21806;SDS011;11065;50.786;7.840;2022-07-29T05:19:02;3.43;;;1.50;;
21806;SDS011;11065;50.786;7.840;2022-07-29T05:21:29;2.03;;;1.17;;
21806;SDS011;11065;50.786;7.840;2022-07-29T05:23:55;5.37;;;1.50;;
21806;SDS011;11065;50.786;7.840;2022-07-29T05:26:22;5.13;;;1.60;;
21806;SDS011;11065;50.786;7.840;2022-07-29T05:28:49;3.73;;;1.60;;
21806;SDS011;11065;50.786;7.840;2022-07-29T05:31:16;2.53;;;1.13;;
21806;SDS011;11065;50.786;7.840;2022-07-29T05:33:43;2.80;;;1.30;;
21806;SDS011;11065;50.786;7.840;2022-07-29T05:36:10;2.80;;;1.17;;
21806;SDS011;11065;50.786;7.840;2022-07-29T05:38:37;3.47;;;1.30;;
21806;SDS011;11065;50.786;7.840;2022-07-29T05:41:04;2.70;;;1.40;;
21806;SDS011;11065;50.786;7.840;2022-07-29T05:43:31;1.60;;;1.07;;
21806;SDS011;11065;50.786;7.840;2022-07-29T05:45:59;2.83;;;1.43;;
21806;SDS011;11065;50.786;7.840;2022-07-29T05:48:26;4.63;;;1.37;;
21806;SDS011;11065;50.786;7.840;2022-07-29T05:50:53;2.10;;;1.20;;
21806;SDS011;11065;50.786;7.840;2022-07-29T05:53:21;3.17;;;1.40;;
21806;SDS011;11065;50.786;7.840;2022-07-29T05:55:48;2.20;;;1.40;;
21806;SDS011;11065;50.786;7.840;2022-07-29T05:58:15;3.77;;;1.60;;
21806;SDS011;11065;50.786;7.840;2022-07-29T06:00:42;4.07;;;1.43;;
21806;SDS011;11065;50.786;7.840;2022-07-29T06:03:09;3.87;;;1.63;;
21806;SDS011;11065;50.786;7.840;2022-07-29T06:05:36;3.53;;;1.67;;
21806;SDS011;11065;50.786;7.840;2022-07-29T06:08:03;2.57;;;1.50;;
21806;SDS011;11065;50.786;7.840;2022-07-29T06:10:34;4.27;;;1.30;;
21806;SDS011;11065;50.786;7.840;2022-07-29T06:13:01;2.77;;;1.30;;
21806;SDS011;11065;50.786;7.840;2022-07-29T06:15:28;4.50;;;1.50;;
21806;SDS011;11065;50.786;7.840;2022-07-29T06:17:55;3.87;;;1.33;;
21806;SDS011;11065;50.786;7.840;2022-07-29T06:20:29;3.83;;;1.47;;
21806;SDS011;11065;50.786;7.840;2022-07-29T06:22:58;5.27;;;1.70;;
21806;SDS011;11065;50.786;7.840;2022-07-29T06:25:25;2.93;;;1.27;;
21806;SDS011;11065;50.786;7.840;2022-07-29T06:27:55;4.10;;;1.50;;
21806;SDS011;11065;50.786;7.840;2022-07-29T06:30:22;4.20;;;1.30;;
21806;SDS011;11065;50.786;7.840;2022-07-29T06:32:49;3.30;;;1.40;;
21806;SDS011;11065;50.786;7.840;2022-07-29T06:35:16;7.90;;;1.37;;
21806;SDS011;11065;50.786;7.840;2022-07-29T06:38:03;2.13;;;1.20;;
21806;SDS011;11065;50.786;7.840;2022-07-29T06:40:50;3.27;;;1.50;;
21806;SDS011;11065;50.786;7.840;2022-07-29T06:43:33;2.90;;;1.50;;
21806;SDS011;11065;50.786;7.840;2022-07-29T06:46:18;5.03;;;1.40;;
21806;SDS011;11065;50.786;7.840;2022-07-29T06:48:46;4.30;;;1.43;;
21806;SDS011;11065;50.786;7.840;2022-07-29T06:51:14;3.07;;;1.67;;
21806;SDS011;11065;50.786;7.840;2022-07-29T06:53:41;3.23;;;1.30;;
21806;SDS011;11065;50.786;7.840;2022-07-29T06:56:25;8.50;;;1.50;;
21806;SDS011;11065;50.786;7.840;2022-07-29T06:58:52;3.80;;;1.57;;
21806;SDS011;11065;50.786;7.840;2022-07-29T07:01:19;5.40;;;1.57;;
21806;SDS011;11065;50.786;7.840;2022-07-29T07:03:46;2.60;;;1.10;;
21806;SDS011;11065;50.786;7.840;2022-07-29T07:06:13;2.40;;;1.20;;
21806;SDS011;11065;50.786;7.840;2022-07-29T07:08:40;2.43;;;1.27;;
21806;SDS011;11065;50.786;7.840;2022-07-29T07:11:07;2.47;;;1.67;;
21806;SDS011;11065;50.786;7.840;2022-07-29T07:13:34;3.87;;;1.70;;
21806;SDS011;11065;50.786;7.840;2022-07-29T07:16:02;6.10;;;1.60;;
21806;SDS011;11065;50.786;7.840;2022-07-29T07:18:30;3.10;;;1.40;;
21806;SDS011;11065;50.786;7.840;2022-07-29T07:20:57;2.43;;;1.20;;
21806;SDS011;11065;50.786;7.840;2022-07-29T07:23:24;2.07;;;1.10;;
21806;SDS011;11065;50.786;7.840;2022-07-29T07:25:51;3.10;;;1.60;;
21806;SDS011;11065;50.786;7.840;2022-07-29T07:28:18;2.80;;;1.30;;
21806;SDS011;11065;50.786;7.840;2022-07-29T07:30:50;5.90;;;1.50;;
21806;SDS011;11065;50.786;7.840;2022-07-29T07:33:18;5.50;;;1.53;;
21806;SDS011;11065;50.786;7.840;2022-07-29T07:35:45;3.10;;;1.40;;
21806;SDS011;11065;50.786;7.840;2022-07-29T07:38:12;3.40;;;1.67;;
21806;SDS011;11065;50.786;7.840;2022-07-29T07:40:39;3.77;;;1.80;;
21806;SDS011;11065;50.786;7.840;2022-07-29T07:43:07;2.87;;;1.50;;
21806;SDS011;11065;50.786;7.840;2022-07-29T07:45:33;3.87;;;1.33;;
21806;SDS011;11065;50.786;7.840;2022-07-29T07:48:03;2.20;;;1.10;;
21806;SDS011;11065;50.786;7.840;2022-07-29T07:50:30;4.27;;;1.43;;
21806;SDS011;11065;50.786;7.840;2022-07-29T07:52:58;3.67;;;1.57;;
21806;SDS011;11065;50.786;7.840;2022-07-29T07:55:25;5.40;;;1.40;;
21806;SDS011;11065;50.786;7.840;2022-07-29T07:57:52;2.87;;;1.53;;
21806;SDS011;11065;50.786;7.840;2022-07-29T08:00:20;3.63;;;1.53;;
21806;SDS011;11065;50.786;7.840;2022-07-29T08:02:49;2.93;;;1.60;;
21806;SDS011;11065;50.786;7.840;2022-07-29T08:05:16;2.97;;;1.30;;
21806;SDS011;11065;50.786;7.840;2022-07-29T08:07:46;15.50;;;2.40;;
21806;SDS011;11065;50.786;7.840;2022-07-29T08:10:13;4.97;;;1.60;;
21806;SDS011;11065;50.786;7.840;2022-07-29T08:13:02;3.73;;;1.30;;
21806;SDS011;11065;50.786;7.840;2022-07-29T08:15:30;2.67;;;1.23;;
21806;SDS011;11065;50.786;7.840;2022-07-29T08:17:57;3.57;;;1.40;;
21806;SDS011;11065;50.786;7.840;2022-07-29T08:20:24;2.38;;;1.70;;
21806;SDS011;11065;50.786;7.840;2022-07-29T08:22:51;3.95;;;1.70;;
21806;SDS011;11065;50.786;7.840;2022-07-29T08:25:19;3.13;;;1.40;;
21806;SDS011;11065;50.786;7.840;2022-07-29T08:27:47;3.35;;;1.67;;
21806;SDS011;11065;50.786;7.840;2022-07-29T08:30:14;3.38;;;1.65;;
21806;SDS011;11065;50.786;7.840;2022-07-29T08:32:41;3.47;;;1.67;;
21806;SDS011;11065;50.786;7.840;2022-07-29T08:35:20;3.75;;;1.80;;
21806;SDS011;11065;50.786;7.840;2022-07-29T08:37:48;3.60;;;1.77;;
21806;SDS011;11065;50.786;7.840;2022-07-29T08:40:15;3.50;;;1.50;;
21806;SDS011;11065;50.786;7.840;2022-07-29T08:42:42;3.88;;;1.48;;
21806;SDS011;11065;50.786;7.840;2022-07-29T08:45:09;4.20;;;1.88;;
21806;SDS011;11065;50.786;7.840;2022-07-29T08:47:37;3.30;;;1.55;;
21806;SDS011;11065;50.786;7.840;2022-07-29T08:50:08;4.00;;;1.98;;
21806;SDS011;11065;50.786;7.840;2022-07-29T08:52:36;3.90;;;1.60;;
21806;SDS011;11065;50.786;7.840;2022-07-29T08:55:05;4.28;;;1.50;;
21806;SDS011;11065;50.786;7.840;2022-07-29T08:57:34;4.93;;;1.60;;
21806;SDS011;11065;50.786;7.840;2022-07-29T09:00:06;4.97;;;1.50;;
21806;SDS011;11065;50.786;7.840;2022-07-29T09:02:41;4.35;;;1.85;;
21806;SDS011;11065;50.786;7.840;2022-07-29T09:05:13;6.40;;;1.85;;
21806;SDS011;11065;50.786;7.840;2022-07-29T09:07:41;2.47;;;1.52;;
21806;SDS011;11065;50.786;7.840;2022-07-29T09:10:09;1.80;;;1.50;;
21806;SDS011;11065;50.786;7.840;2022-07-29T09:12:36;2.47;;;1.38;;
21806;SDS011;11065;50.786;7.840;2022-07-29T09:15:04;2.72;;;1.23;;
21806;SDS011;11065;50.786;7.840;2022-07-29T09:17:44;4.60;;;1.25;;
21806;SDS011;11065;50.786;7.840;2022-07-29T09:22:44;3.00;;;1.20;;
21806;SDS011;11065;50.786;7.840;2022-07-29T09:25:31;2.63;;;1.38;;
21806;SDS011;11065;50.786;7.840;2022-07-29T09:28:05;4.07;;;1.23;;
21806;SDS011;11065;50.786;7.840;2022-07-29T09:30:33;3.85;;;1.42;;
21806;SDS011;11065;50.786;7.840;2022-07-29T09:33:00;2.03;;;1.38;;
21806;SDS011;11065;50.786;7.840;2022-07-29T09:35:29;2.65;;;1.50;;
21806;SDS011;11065;50.786;7.840;2022-07-29T09:37:57;4.43;;;1.70;;
21806;SDS011;11065;50.786;7.840;2022-07-29T09:40:35;2.75;;;1.60;;
21806;SDS011;11065;50.786;7.840;2022-07-29T09:43:12;2.78;;;1.60;;
21806;SDS011;11065;50.786;7.840;2022-07-29T09:45:39;2.20;;;1.40;;
21806;SDS011;11065;50.786;7.840;2022-07-29T09:48:13;4.00;;;1.48;;
21806;SDS011;11065;50.786;7.840;2022-07-29T09:50:42;3.53;;;1.70;;
21806;SDS011;11065;50.786;7.840;2022-07-29T09:53:10;3.80;;;1.50;;
21806;SDS011;11065;50.786;7.840;2022-07-29T09:55:49;2.78;;;1.40;;
21806;SDS011;11065;50.786;7.840;2022-07-29T09:58:21;3.92;;;1.50;;
21806;SDS011;11065;50.786;7.840;2022-07-29T10:00:49;3.70;;;1.48;;
21806;SDS011;11065;50.786;7.840;2022-07-29T10:03:17;2.35;;;1.52;;
21806;SDS011;11065;50.786;7.840;2022-07-29T10:05:44;3.65;;;1.80;;
21806;SDS011;11065;50.786;7.840;2022-07-29T10:08:12;2.97;;;1.60;;
21806;SDS011;11065;50.786;7.840;2022-07-29T10:10:40;4.22;;;1.60;;
21806;SDS011;11065;50.786;7.840;2022-07-29T10:13:12;3.75;;;1.50;;
21806;SDS011;11065;50.786;7.840;2022-07-29T10:15:42;2.35;;;1.42;;
21806;SDS011;11065;50.786;7.840;2022-07-29T10:18:12;3.20;;;1.40;;
21806;SDS011;11065;50.786;7.840;2022-07-29T10:20:40;3.13;;;1.48;;
21806;SDS011;11065;50.786;7.840;2022-07-29T10:23:07;3.13;;;1.42;;
21806;SDS011;11065;50.786;7.840;2022-07-29T10:25:35;2.97;;;1.40;;
21806;SDS011;11065;50.786;7.840;2022-07-29T10:28:02;3.83;;;1.60;;
21806;SDS011;11065;50.786;7.840;2022-07-29T10:30:31;3.55;;;1.38;;
21806;SDS011;11065;50.786;7.840;2022-07-29T10:38:44;2.90;;;1.35;;
21806;SDS011;11065;50.786;7.840;2022-07-29T10:44:14;4.70;;;1.77;;
21806;SDS011;11065;50.786;7.840;2022-07-29T10:46:45;2.28;;;1.55;;
21806;SDS011;11065;50.786;7.840;2022-07-29T10:57:12;2.83;;;1.42;;
21806;SDS011;11065;50.786;7.840;2022-07-29T11:02:43;1.92;;;1.30;;
21806;SDS011;11065;50.786;7.840;2022-07-29T11:05:18;5.88;;;1.65;;
21806;SDS011;11065;50.786;7.840;2022-07-29T11:13:55;2.50;;;1.50;;
21806;SDS011;11065;50.786;7.840;2022-07-29T11:16:22;1.88;;;1.40;;
21806;SDS011;11065;50.786;7.840;2022-07-29T11:21:43;2.25;;;1.45;;
21806;SDS011;11065;50.786;7.840;2022-07-29T11:24:31;2.00;;;1.30;;
21806;SDS011;11065;50.786;7.840;2022-07-29T11:30:00;1.90;;;1.30;;
21806;SDS011;11065;50.786;7.840;2022-07-29T11:32:36;3.42;;;1.40;;
21806;SDS011;11065;50.786;7.840;2022-07-29T11:35:18;2.47;;;1.30;;
21806;SDS011;11065;50.786;7.840;2022-07-29T11:46:15;2.85;;;1.60;;
21806;SDS011;11065;50.786;7.840;2022-07-29T11:49:02;3.42;;;1.40;;
21806;SDS011;11065;50.786;7.840;2022-07-29T11:51:35;2.25;;;1.50;;
21806;SDS011;11065;50.786;7.840;2022-07-29T11:54:13;2.10;;;1.30;;
21806;SDS011;11065;50.786;7.840;2022-07-29T11:56:53;4.47;;;1.10;;
21806;SDS011;11065;50.786;7.840;2022-07-29T11:59:20;1.55;;;1.25;;
21806;SDS011;11065;50.786;7.840;2022-07-29T12:01:58;2.85;;;1.40;;
21806;SDS011;11065;50.786;7.840;2022-07-29T12:04:49;2.85;;;1.60;;
21806;SDS011;11065;50.786;7.840;2022-07-29T12:07:27;3.58;;;1.48;;
21806;SDS011;11065;50.786;7.840;2022-07-29T12:10:00;3.88;;;1.77;;
21806;SDS011;11065;50.786;7.840;2022-07-29T12:12:28;2.17;;;1.77;;
21806;SDS011;11065;50.786;7.840;2022-07-29T12:14:55;2.85;;;1.48;;
21806;SDS011;11065;50.786;7.840;2022-07-29T12:17:29;2.33;;;1.65;;
21806;SDS011;11065;50.786;7.840;2022-07-29T12:20:02;4.53;;;1.48;;
21806;SDS011;11065;50.786;7.840;2022-07-29T12:22:34;2.63;;;1.67;;
21806;SDS011;11065;50.786;7.840;2022-07-29T12:25:05;1.80;;;1.30;;
21806;SDS011;11065;50.786;7.840;2022-07-29T12:27:57;1.90;;;1.40;;
21806;SDS011;11065;50.786;7.840;2022-07-29T12:30:34;2.75;;;1.75;;
21806;SDS011;11065;50.786;7.840;2022-07-29T12:33:20;2.40;;;1.50;;
21806;SDS011;11065;50.786;7.840;2022-07-29T12:35:50;2.90;;;1.80;;
21806;SDS011;11065;50.786;7.840;2022-07-29T12:38:39;3.30;;;1.83;;
21806;SDS011;11065;50.786;7.840;2022-07-29T12:41:06;3.15;;;1.60;;
21806;SDS011;11065;50.786;7.840;2022-07-29T12:43:34;2.72;;;1.88;;
21806;SDS011;11065;50.786;7.840;2022-07-29T12:46:22;2.85;;;1.63;;
21806;SDS011;11065;50.786;7.840;2022-07-29T12:48:53;3.28;;;1.50;;
21806;SDS011;11065;50.786;7.840;2022-07-29T12:51:34;3.80;;;1.48;;
21806;SDS011;11065;50.786;7.840;2022-07-29T12:54:08;2.22;;;1.73;;
21806;SDS011;11065;50.786;7.840;2022-07-29T12:56:40;2.22;;;1.70;;
21806;SDS011;11065;50.786;7.840;2022-07-29T12:59:11;2.58;;;1.50;;
21806;SDS011;11065;50.786;7.840;2022-07-29T13:01:41;2.45;;;1.67;;
21806;SDS011;11065;50.786;7.840;2022-07-29T13:04:08;2.42;;;1.65;;
21806;SDS011;11065;50.786;7.840;2022-07-29T13:06:42;3.67;;;1.67;;
21806;SDS011;11065;50.786;7.840;2022-07-29T13:09:15;3.10;;;1.38;;
21806;SDS011;11065;50.786;7.840;2022-07-29T13:11:45;2.40;;;1.65;;
21806;SDS011;11065;50.786;7.840;2022-07-29T13:14:28;3.40;;;1.70;;
21806;SDS011;11065;50.786;7.840;2022-07-29T13:19:40;3.72;;;1.70;;
21806;SDS011;11065;50.786;7.840;2022-07-29T13:22:13;2.67;;;2.13;;
21806;SDS011;11065;50.786;7.840;2022-07-29T13:24:45;2.53;;;1.75;;
21806;SDS011;11065;50.786;7.840;2022-07-29T13:27:14;2.60;;;1.85;;
21806;SDS011;11065;50.786;7.840;2022-07-29T13:29:41;4.32;;;2.05;;
21806;SDS011;11065;50.786;7.840;2022-07-29T13:32:08;4.20;;;1.60;;
21806;SDS011;11065;50.786;7.840;2022-07-29T13:34:35;3.35;;;1.60;;
21806;SDS011;11065;50.786;7.840;2022-07-29T13:37:02;2.42;;;1.70;;
21806;SDS011;11065;50.786;7.840;2022-07-29T13:39:29;2.15;;;1.63;;
21806;SDS011;11065;50.786;7.840;2022-07-29T13:41:56;5.70;;;1.80;;
21806;SDS011;11065;50.786;7.840;2022-07-29T13:44:25;6.80;;;1.58;;
21806;SDS011;11065;50.786;7.840;2022-07-29T13:46:52;2.15;;;1.50;;
21806;SDS011;11065;50.786;7.840;2022-07-29T13:49:19;4.25;;;1.88;;
21806;SDS011;11065;50.786;7.840;2022-07-29T13:51:45;2.70;;;1.60;;
21806;SDS011;11065;50.786;7.840;2022-07-29T13:54:12;2.72;;;2.00;;
21806;SDS011;11065;50.786;7.840;2022-07-29T13:56:39;3.20;;;1.42;;
21806;SDS011;11065;50.786;7.840;2022-07-29T13:59:06;2.28;;;1.63;;
21806;SDS011;11065;50.786;7.840;2022-07-29T14:01:34;2.45;;;1.70;;
21806;SDS011;11065;50.786;7.840;2022-07-29T14:04:01;3.80;;;1.67;;
21806;SDS011;11065;50.786;7.840;2022-07-29T14:06:29;3.72;;;1.70;;
21806;SDS011;11065;50.786;7.840;2022-07-29T14:08:56;3.88;;;2.05;;
21806;SDS011;11065;50.786;7.840;2022-07-29T14:11:23;9.98;;;6.22;;
21806;SDS011;11065;50.786;7.840;2022-07-29T14:13:50;8.18;;;3.40;;
21806;SDS011;11065;50.786;7.840;2022-07-29T14:16:17;5.35;;;2.63;;
21806;SDS011;11065;50.786;7.840;2022-07-29T14:18:44;2.80;;;1.80;;
21806;SDS011;11065;50.786;7.840;2022-07-29T14:21:11;3.50;;;2.22;;
21806;SDS011;11065;50.786;7.840;2022-07-29T14:23:38;5.18;;;1.95;;
21806;SDS011;11065;50.786;7.840;2022-07-29T14:26:09;2.22;;;1.90;;
21806;SDS011;11065;50.786;7.840;2022-07-29T14:28:41;2.30;;;1.63;;
21806;SDS011;11065;50.786;7.840;2022-07-29T14:31:09;2.90;;;1.75;;
21806;SDS011;11065;50.786;7.840;2022-07-29T14:33:36;4.13;;;1.70;;
21806;SDS011;11065;50.786;7.840;2022-07-29T14:36:03;2.15;;;1.60;;
21806;SDS011;11065;50.786;7.840;2022-07-29T14:38:30;3.35;;;2.05;;
21806;SDS011;11065;50.786;7.840;2022-07-29T14:40:57;5.28;;;2.15;;
21806;SDS011;11065;50.786;7.840;2022-07-29T14:43:24;3.00;;;1.75;;
21806;SDS011;11065;50.786;7.840;2022-07-29T14:45:51;2.65;;;1.90;;
21806;SDS011;11065;50.786;7.840;2022-07-29T14:48:24;4.18;;;1.85;;
21806;SDS011;11065;50.786;7.840;2022-07-29T14:50:50;2.72;;;1.75;;
21806;SDS011;11065;50.786;7.840;2022-07-29T14:53:17;3.78;;;2.00;;
21806;SDS011;11065;50.786;7.840;2022-07-29T14:55:44;4.18;;;1.92;;
21806;SDS011;11065;50.786;7.840;2022-07-29T14:58:11;3.50;;;2.00;;
21806;SDS011;11065;50.786;7.840;2022-07-29T15:00:42;4.55;;;2.20;;
21806;SDS011;11065;50.786;7.840;2022-07-29T15:03:09;2.70;;;2.00;;
21806;SDS011;11065;50.786;7.840;2022-07-29T15:05:37;3.55;;;1.85;;
21806;SDS011;11065;50.786;7.840;2022-07-29T15:08:04;3.10;;;2.03;;
21806;SDS011;11065;50.786;7.840;2022-07-29T15:10:31;4.85;;;2.00;;
21806;SDS011;11065;50.786;7.840;2022-07-29T15:12:58;3.97;;;2.28;;
21806;SDS011;11065;50.786;7.840;2022-07-29T15:15:25;3.78;;;2.00;;
21806;SDS011;11065;50.786;7.840;2022-07-29T15:17:52;3.50;;;1.98;;
21806;SDS011;11065;50.786;7.840;2022-07-29T15:20:19;3.63;;;2.15;;
21806;SDS011;11065;50.786;7.840;2022-07-29T15:22:46;4.18;;;1.90;;
21806;SDS011;11065;50.786;7.840;2022-07-29T15:25:12;2.80;;;1.92;;
21806;SDS011;11065;50.786;7.840;2022-07-29T15:27:39;4.60;;;1.90;;
21806;SDS011;11065;50.786;7.840;2022-07-29T15:30:14;3.55;;;1.98;;
21806;SDS011;11065;50.786;7.840;2022-07-29T15:32:59;4.28;;;2.17;;
21806;SDS011;11065;50.786;7.840;2022-07-29T15:35:27;2.50;;;1.83;;
21806;SDS011;11065;50.786;7.840;2022-07-29T15:37:54;4.53;;;2.28;;
21806;SDS011;11065;50.786;7.840;2022-07-29T15:40:20;2.50;;;1.85;;
21806;SDS011;11065;50.786;7.840;2022-07-29T15:42:47;2.80;;;1.92;;
21806;SDS011;11065;50.786;7.840;2022-07-29T15:45:14;3.75;;;2.05;;
21806;SDS011;11065;50.786;7.840;2022-07-29T15:47:42;4.68;;;1.80;;
21806;SDS011;11065;50.786;7.840;2022-07-29T15:50:09;4.28;;;2.30;;
21806;SDS011;11065;50.786;7.840;2022-07-29T15:52:43;4.80;;;2.63;;
21806;SDS011;11065;50.786;7.840;2022-07-29T15:55:10;3.92;;;2.00;;
21806;SDS011;11065;50.786;7.840;2022-07-29T15:57:37;3.10;;;1.85;;
21806;SDS011;11065;50.786;7.840;2022-07-29T16:00:06;3.00;;;1.90;;